Time;durP1;ratioP1;P1;durP2;ratioP2;P2;SDS_P1;SDS_P2;PMS_P1;PMS_P2;Temp;Humidity;BMP_temperature;BMP_pressure;BME280_temperature;BME280_humidity;BME280_pressure;Samples;Min_cycle;Max_cycle;Signal;HPM_P1;HPM_P2
2021/08/29 00:01:55;;;;;;;10.20;9.23;;;10.50;89.90;;;;;;4942999;29;20150;-74
2021/08/29 00:04:27;;;;;;;9.98;9.18;;;10.50;89.40;;;;;;4946139;29;20149;-74
2021/08/29 00:06:59;;;;;;;9.73;9.02;;;10.60;89.30;;;;;;4943249;29;20473;-73
2021/08/29 00:09:31;;;;;;;10.07;9.27;;;10.60;89.10;;;;;;4944075;29;20112;-74
2021/08/29 00:12:03;;;;;;;10.00;9.02;;;10.60;89.20;;;;;;4942714;29;20075;-72
2021/08/29 00:14:35;;;;;;;10.10;9.30;;;10.60;89.00;;;;;;4945361;29;20599;-73
2021/08/29 00:17:07;;;;;;;9.73;8.93;;;10.60;89.10;;;;;;4943909;29;20074;-73
2021/08/29 00:19:39;;;;;;;9.88;9.18;;;10.60;88.80;;;;;;4945079;29;20109;-74
2021/08/29 00:22:11;;;;;;;9.85;9.05;;;10.60;89.00;;;;;;4943074;29;20138;-74
2021/08/29 00:24:44;;;;;;;9.70;9.00;;;10.60;88.80;;;;;;4944358;29;20043;-75
2021/08/29 00:27:16;;;;;;;9.50;8.65;;;10.70;88.70;;;;;;4943000;29;20070;-74
2021/08/29 00:29:48;;;;;;;9.85;9.07;;;10.70;88.80;;;;;;4944753;29;20078;-74
2021/08/29 00:32:20;;;;;;;9.88;9.00;;;10.70;88.70;;;;;;4943060;29;20139;-73
2021/08/29 00:34:52;;;;;;;9.68;8.98;;;10.70;89.00;;;;;;4945215;29;20127;-74
2021/08/29 00:37:24;;;;;;;10.10;9.30;;;10.70;88.70;;;;;;4941534;29;20043;-74
2021/08/29 00:39:56;;;;;;;9.30;8.60;;;10.70;88.60;;;;;;4945236;29;20051;-74
2021/08/29 00:42:28;;;;;;;9.77;9.07;;;10.60;88.80;;;;;;4941553;29;20062;-74
2021/08/29 00:45:01;;;;;;;9.55;8.82;;;10.70;88.90;;;;;;4943384;29;20560;-75
2021/08/29 00:47:33;;;;;;;9.57;8.88;;;10.60;88.80;;;;;;4942173;29;20078;-73
2021/08/29 00:50:06;;;;;;;9.85;9.15;;;10.60;89.10;;;;;;4933664;29;20091;-74
2021/08/29 00:52:44;;;;;;;9.68;8.98;;;10.70;89.20;;;;;;4948299;29;20772;-75
2021/08/29 00:55:16;;;;;;;9.55;8.85;;;10.60;89.20;;;;;;4929054;29;20138;-74
2021/08/29 00:57:53;;;;;;;9.77;8.98;;;10.60;89.30;;;;;;4949010;29;20530;-74
2021/08/29 01:00:26;;;;;;;10.38;9.57;;;10.60;89.30;;;;;;4949158;29;20058;-75
2021/08/29 01:03:03;;;;;;;10.43;9.52;;;10.60;88.90;;;;;;4948285;29;20067;-74
2021/08/29 01:05:42;;;;;;;10.10;9.30;;;10.60;89.10;;;;;;4948874;29;20062;-74
2021/08/29 01:08:29;;;;;;;10.38;9.52;;;10.60;88.70;;;;;;4947792;29;20563;-74
2021/08/29 01:11:07;;;;;;;10.48;9.68;;;10.70;88.50;;;;;;4960850;29;20116;-75
2021/08/29 01:13:45;;;;;;;10.18;9.27;;;10.70;88.60;;;;;;4947636;29;20055;-74
2021/08/29 01:16:21;;;;;;;10.23;9.32;;;10.60;88.60;;;;;;4944135;29;20047;-74
2021/08/29 01:19:09;;;;;;;9.82;9.13;;;10.60;88.50;;;;;;4959531;29;20062;-74
2021/08/29 01:21:44;;;;;;;9.68;8.98;;;10.70;88.60;;;;;;4947544;29;20054;-74
2021/08/29 01:24:20;;;;;;;9.98;9.07;;;10.60;88.20;;;;;;4947408;29;20051;-74
2021/08/29 01:27:00;;;;;;;9.77;9.07;;;10.60;88.10;;;;;;4962660;29;21592;-73
2021/08/29 01:29:33;;;;;;;9.60;8.90;;;10.60;87.50;;;;;;4963887;29;20066;-72
2021/08/29 01:32:12;;;;;;;9.88;8.93;;;10.60;87.80;;;;;;4933194;29;20044;-71
2021/08/29 01:34:53;;;;;;;;;;;10.60;87.50;;;;;;4939180;29;20055;-72
2021/08/29 01:37:28;;;;;;;9.77;9.07;;;10.60;87.90;;;;;;4947536;29;19940;-73
2021/08/29 01:40:02;;;;;;;9.48;8.70;;;10.50;87.80;;;;;;4949231;29;20083;-72
2021/08/29 01:42:38;;;;;;;9.95;9.15;;;10.50;87.80;;;;;;4937682;29;20434;-73
2021/08/29 01:45:12;;;;;;;10.13;9.32;;;10.50;87.70;;;;;;4962601;29;20085;-72
2021/08/29 01:47:47;;;;;;;9.32;8.63;;;10.40;88.30;;;;;;4932919;29;20066;-72
2021/08/29 01:50:25;;;;;;;9.35;8.65;;;10.30;88.70;;;;;;4948455;29;20061;-72
2021/08/29 01:53:06;;;;;;;9.75;9.00;;;10.40;88.50;;;;;;4938670;29;20067;-73
2021/08/29 01:56:01;;;;;;;9.68;8.88;;;10.40;88.40;;;;;;4951317;29;20669;-73
2021/08/29 01:58:55;;;;;;;9.30;8.57;;;10.40;88.40;;;;;;4948985;29;20406;-72
2021/08/29 02:01:31;;;;;;;9.23;8.50;;;10.40;88.30;;;;;;4959145;29;20518;-72
2021/08/29 02:04:07;;;;;;;9.38;8.60;;;10.40;88.10;;;;;;4945454;29;20066;-74
2021/08/29 02:06:46;;;;;;;9.20;8.40;;;10.40;87.90;;;;;;4944183;29;20120;-74
2021/08/29 02:09:19;;;;;;;9.85;9.10;;;10.30;87.90;;;;;;4960707;29;20082;-74
2021/08/29 02:12:01;;;;;;;9.68;8.88;;;10.40;87.90;;;;;;4930315;29;20051;-74
2021/08/29 02:14:48;;;;;;;9.63;8.75;;;10.30;87.90;;;;;;4944830;29;20058;-73
2021/08/29 02:17:21;;;;;;;9.27;8.57;;;10.30;87.90;;;;;;4944540;29;20047;-73
2021/08/29 02:19:55;;;;;;;9.30;8.60;;;10.30;87.70;;;;;;4960272;29;20119;-74
2021/08/29 02:22:27;;;;;;;9.60;8.80;;;10.20;87.70;;;;;;4958702;29;20067;-73
2021/08/29 02:25:03;;;;;;;9.88;9.18;;;10.20;87.80;;;;;;4944761;29;20059;-73
2021/08/29 02:27:36;;;;;;;10.20;9.27;;;10.20;88.00;;;;;;4938505;29;20415;-73
2021/08/29 02:30:10;;;;;;;9.07;8.38;;;10.10;87.90;;;;;;4944649;29;20581;-74
2021/08/29 02:32:44;;;;;;;9.32;8.52;;;10.10;88.10;;;;;;4946244;29;20493;-73
2021/08/29 02:35:17;;;;;;;9.13;8.43;;;10.10;88.00;;;;;;4935163;29;20541;-73
2021/08/29 02:37:56;;;;;;;9.65;8.95;;;10.10;88.00;;;;;;4957422;29;20169;-73
2021/08/29 02:40:35;;;;;;;9.63;8.93;;;10.10;88.20;;;;;;4944790;29;20050;-75
2021/08/29 02:43:08;;;;;;;9.73;8.90;;;10.10;88.10;;;;;;4959412;29;20146;-73
2021/08/29 02:45:43;;;;;;;10.02;9.23;;;10.10;88.30;;;;;;4959262;29;20060;-73
2021/08/29 02:48:17;;;;;;;9.95;9.15;;;10.10;88.40;;;;;;4960908;29;20103;-73
2021/08/29 02:50:52;;;;;;;9.65;8.95;;;10.10;88.00;;;;;;4943500;29;20705;-72
2021/08/29 02:53:28;;;;;;;9.75;8.95;;;10.00;88.00;;;;;;4943914;29;20431;-72
2021/08/29 02:56:00;;;;;;;9.70;8.77;;;10.10;88.20;;;;;;4944004;29;20048;-71
2021/08/29 02:58:40;;;;;;;9.60;8.90;;;10.10;87.90;;;;;;4927002;30;20134;-74
2021/08/29 03:01:26;;;;;;;9.82;9.10;;;10.10;88.80;;;;;;4943578;29;20066;-73
2021/08/29 03:04:04;;;;;;;9.80;9.00;;;10.10;88.00;;;;;;4945509;29;20138;-74
2021/08/29 03:06:40;;;;;;;10.30;9.40;;;10.10;88.30;;;;;;4944543;29;20050;-74
2021/08/29 03:09:13;;;;;;;9.90;9.15;;;10.10;88.30;;;;;;4945453;29;20221;-74
2021/08/29 03:11:50;;;;;;;9.52;8.73;;;10.10;88.10;;;;;;4959436;29;20042;-74
2021/08/29 03:14:42;;;;;;;9.35;8.60;;;10.10;88.20;;;;;;4946027;29;20063;-74
2021/08/29 03:17:18;;;;;;;9.48;8.68;;;10.10;88.00;;;;;;4945227;29;20116;-74
2021/08/29 03:19:55;;;;;;;9.68;8.88;;;10.10;88.20;;;;;;4945435;29;20054;-75
2021/08/29 03:22:31;;;;;;;9.50;8.60;;;10.00;88.20;;;;;;4962378;29;20043;-74
2021/08/29 03:25:07;;;;;;;9.20;8.50;;;10.00;88.40;;;;;;4943538;29;20051;-73
2021/08/29 03:27:39;;;;;;;9.68;8.77;;;10.00;88.30;;;;;;4944343;29;20149;-75
2021/08/29 03:30:12;;;;;;;9.52;8.82;;;9.90;88.20;;;;;;4943945;29;20130;-75
2021/08/29 03:32:44;;;;;;;9.95;9.18;;;10.00;88.20;;;;;;4943942;29;20063;-75
2021/08/29 03:35:26;;;;;;;9.82;8.98;;;10.00;88.30;;;;;;4956519;29;20047;-74
2021/08/29 03:38:02;;;;;;;9.80;9.00;;;9.90;88.20;;;;;;4944282;29;20088;-75
2021/08/29 03:40:37;;;;;;;9.90;9.10;;;10.00;88.10;;;;;;4958319;29;20055;-74
2021/08/29 03:43:10;;;;;;;9.95;9.18;;;10.00;88.20;;;;;;4944263;29;20155;-73
2021/08/29 03:45:43;;;;;;;9.63;8.93;;;10.00;88.20;;;;;;4928702;29;20554;-74
2021/08/29 03:48:15;;;;;;;9.43;8.73;;;10.00;88.10;;;;;;4944308;29;20737;-75
2021/08/29 03:50:49;;;;;;;9.60;8.70;;;10.00;87.90;;;;;;4943774;29;20075;-74
2021/08/29 03:53:23;;;;;;;10.48;9.68;;;10.00;88.20;;;;;;4942459;29;20043;-74
2021/08/29 03:55:56;;;;;;;9.85;9.15;;;10.00;88.50;;;;;;4958909;29;20702;-74
2021/08/29 03:58:28;;;;;;;9.82;9.13;;;10.00;88.40;;;;;;4946024;29;20146;-73
2021/08/29 04:01:01;;;;;;;10.10;9.27;;;10.00;88.40;;;;;;4928579;29;20047;-73
2021/08/29 04:03:34;;;;;;;9.98;9.25;;;9.90;88.50;;;;;;4943875;29;20398;-74
2021/08/29 04:06:17;;;;;;;10.00;9.30;;;9.90;88.80;;;;;;4943782;29;20479;-74
2021/08/29 04:08:54;;;;;;;10.07;9.38;;;9.90;89.00;;;;;;4943364;29;20065;-75
2021/08/29 04:11:29;;;;;;;10.45;9.40;;;9.90;89.10;;;;;;4944112;29;20053;-74
2021/08/29 04:14:01;;;;;;;9.90;9.20;;;9.90;89.00;;;;;;4943383;29;20059;-75
2021/08/29 04:16:35;;;;;;;9.70;9.00;;;9.90;88.80;;;;;;4942716;29;20051;-74
2021/08/29 04:19:25;;;;;;;9.57;8.88;;;9.80;89.10;;;;;;4958614;29;20055;-74
2021/08/29 04:21:57;;;;;;;10.10;9.20;;;9.90;88.80;;;;;;4936595;29;20051;-74
2021/08/29 04:24:31;;;;;;;10.15;9.43;;;9.90;88.60;;;;;;4943471;29;20116;-74
2021/08/29 04:27:03;;;;;;;10.77;9.95;;;9.90;88.60;;;;;;4943005;29;20051;-75
2021/08/29 04:29:35;;;;;;;10.13;9.32;;;9.90;88.50;;;;;;4929011;30;20468;-74
2021/08/29 04:32:09;;;;;;;11.00;9.40;;;9.90;88.60;;;;;;4941054;29;20131;-75
2021/08/29 04:34:41;;;;;;;10.35;9.55;;;9.90;89.30;;;;;;4958866;29;20054;-75
2021/08/29 04:37:28;;;;;;;10.50;9.70;;;9.90;89.00;;;;;;4942436;29;20090;-75
2021/08/29 04:40:10;;;;;;;10.40;9.60;;;9.90;88.80;;;;;;4929608;29;20592;-74
2021/08/29 04:42:51;;;;;;;10.45;9.40;;;9.90;89.10;;;;;;4941921;29;20132;-74
2021/08/29 04:45:26;;;;;;;10.48;9.57;;;9.90;89.10;;;;;;4940589;29;20051;-74
2021/08/29 04:48:02;;;;;;;9.70;9.00;;;9.90;88.90;;;;;;4921870;29;20063;-73
2021/08/29 04:50:34;;;;;;;9.80;9.10;;;9.90;89.10;;;;;;4942011;29;20558;-73
2021/08/29 04:53:09;;;;;;;10.20;9.40;;;9.90;89.00;;;;;;4927623;29;20196;-74
2021/08/29 04:55:41;;;;;;;10.30;9.50;;;9.90;89.00;;;;;;4943310;29;20048;-73
2021/08/29 04:58:13;;;;;;;10.05;9.27;;;10.00;88.90;;;;;;4942710;29;20051;-72
2021/08/29 05:00:44;;;;;;;10.50;9.70;;;10.00;88.70;;;;;;4942386;29;20457;-72
2021/08/29 05:03:18;;;;;;;10.10;9.20;;;10.00;88.70;;;;;;4941230;29;20893;-72
2021/08/29 05:05:51;;;;;;;9.98;9.27;;;10.10;88.80;;;;;;4955867;29;20058;-71
2021/08/29 05:08:23;;;;;;;10.07;9.32;;;10.10;88.90;;;;;;4945641;29;20057;-72
2021/08/29 05:10:55;;;;;;;9.80;9.00;;;10.00;89.00;;;;;;4941779;29;20074;-73
2021/08/29 05:13:27;;;;;;;10.13;9.32;;;10.00;89.00;;;;;;4926782;29;20662;-73
2021/08/29 05:15:59;;;;;;;10.10;9.30;;;10.00;89.20;;;;;;4927727;30;20052;-72
2021/08/29 05:18:32;;;;;;;9.90;9.00;;;10.00;89.40;;;;;;4941108;29;20067;-74
2021/08/29 05:21:16;;;;;;;10.05;9.15;;;10.00;89.30;;;;;;4955058;29;20420;-73
2021/08/29 05:24:06;;;;;;;9.45;8.65;;;10.10;90.00;;;;;;4943834;29;20055;-73
2021/08/29 05:26:58;;;;;;;10.38;9.48;;;10.10;89.50;;;;;;4927903;29;20460;-73
2021/08/29 05:29:30;;;;;;;10.25;9.07;;;10.20;89.50;;;;;;4941172;29;20059;-74
2021/08/29 05:32:02;;;;;;;9.88;9.07;;;10.20;89.40;;;;;;4941760;29;20146;-74
2021/08/29 05:34:42;;;;;;;9.70;8.90;;;10.30;89.10;;;;;;4934755;29;20051;-73
2021/08/29 05:37:17;;;;;;;10.52;9.73;;;10.30;88.90;;;;;;4944272;29;20134;-72
2021/08/29 05:40:15;;;;;;;9.90;9.10;;;10.30;88.90;;;;;;4946186;29;20626;-72
2021/08/29 05:43:22;;;;;;;9.90;9.10;;;10.40;89.40;;;;;;4946347;29;20058;-72
2021/08/29 05:45:54;;;;;;;10.02;9.23;;;10.40;90.00;;;;;;4960184;29;20047;-72
2021/08/29 05:48:26;;;;;;;10.65;9.80;;;10.40;89.90;;;;;;4935356;29;20067;-73
2021/08/29 05:50:58;;;;;;;10.75;9.95;;;10.40;89.60;;;;;;4944729;29;20104;-73
2021/08/29 05:53:30;;;;;;;11.23;10.35;;;10.40;89.80;;;;;;4944813;29;20445;-75
2021/08/29 05:56:03;;;;;;;11.45;10.55;;;10.30;89.70;;;;;;4944963;29;20081;-75
2021/08/29 05:58:35;;;;;;;11.18;10.18;;;10.20;89.70;;;;;;4961081;29;20047;-75
2021/08/29 06:01:12;;;;;;;10.70;9.90;;;10.10;90.00;;;;;;4944080;29;20580;-75
2021/08/29 06:03:46;;;;;;;10.57;9.77;;;10.10;90.50;;;;;;4946568;29;21762;-75
2021/08/29 06:06:38;;;;;;;12.48;11.57;;;10.20;90.40;;;;;;4945308;29;20064;-75
2021/08/29 06:09:10;;;;;;;11.35;10.50;;;10.20;89.90;;;;;;4963256;29;20050;-74
2021/08/29 06:11:42;;;;;;;10.77;9.98;;;10.20;89.80;;;;;;4942297;29;20328;-73
2021/08/29 06:14:14;;;;;;;11.05;10.23;;;10.30;89.60;;;;;;4944523;29;20043;-74
2021/08/29 06:16:48;;;;;;;11.02;10.00;;;10.30;89.40;;;;;;4943290;29;20999;-74
2021/08/29 06:19:30;;;;;;;10.75;9.95;;;10.30;89.60;;;;;;4958908;29;20144;-74
2021/08/29 06:22:03;;;;;;;11.23;10.32;;;10.40;89.60;;;;;;4941321;29;20274;-74
2021/08/29 06:24:40;;;;;;;11.27;10.48;;;10.40;89.70;;;;;;4943888;29;20051;-75
2021/08/29 06:27:31;;;;;;;11.05;10.10;;;10.40;89.80;;;;;;4944654;29;20135;-74
2021/08/29 06:30:29;;;;;;;10.80;9.93;;;10.40;89.80;;;;;;4943199;29;20047;-74
2021/08/29 06:33:27;;;;;;;11.25;10.35;;;10.40;89.90;;;;;;4942936;29;20477;-74
2021/08/29 06:36:03;;;;;;;11.45;10.55;;;10.40;90.40;;;;;;4943365;29;20130;-75
2021/08/29 06:38:35;;;;;;;11.05;10.25;;;10.40;90.90;;;;;;4944227;29;20046;-74
2021/08/29 06:41:07;;;;;;;11.32;10.43;;;10.40;91.00;;;;;;4927418;30;20054;-74
2021/08/29 06:43:41;;;;;;;10.80;10.00;;;10.40;90.90;;;;;;4944233;29;20131;-75
2021/08/29 06:46:31;;;;;;;;;;;10.40;91.00;;;;;;4945217;29;20054;-75
2021/08/29 06:49:32;;;;;;;11.73;10.82;;;10.40;91.10;;;;;;4944370;29;19926;-75
2021/08/29 06:52:23;;;;;;;12.18;11.13;;;10.50;91.20;;;;;;4944439;29;20052;-75
2021/08/29 06:55:13;;;;;;;11.48;10.60;;;10.60;91.20;;;;;;4944898;29;20043;-74
2021/08/29 06:58:03;;;;;;;;;;;10.70;90.60;;;;;;4944222;29;20113;-75
2021/08/29 07:00:36;;;;;;;10.55;9.75;;;10.70;90.20;;;;;;4956741;29;20020;-76
2021/08/29 07:03:14;;;;;;;10.88;10.07;;;10.80;90.10;;;;;;4940736;29;20075;-74
2021/08/29 07:05:46;;;;;;;12.00;11.10;;;10.80;90.30;;;;;;4956791;29;20118;-74
2021/08/29 07:08:29;;;;;;;11.30;10.50;;;10.80;90.10;;;;;;4943805;29;20046;-74
2021/08/29 07:11:02;;;;;;;11.82;10.93;;;10.80;89.30;;;;;;4943572;29;20047;-75
2021/08/29 07:14:12;;;;;;;11.85;10.90;;;10.80;89.10;;;;;;4922319;30;20992;-75
2021/08/29 07:16:45;;;;;;;12.23;11.32;;;10.70;89.50;;;;;;4917317;30;20133;-74
2021/08/29 07:19:17;;;;;;;12.10;11.20;;;10.70;89.60;;;;;;4929239;29;20134;-76
2021/08/29 07:22:27;;;;;;;12.18;11.05;;;10.60;89.50;;;;;;4944541;29;20048;-75
2021/08/29 07:25:17;;;;;;;12.07;11.18;;;10.60;89.90;;;;;;4946038;29;20587;-74
2021/08/29 07:28:07;;;;;;;11.80;11.00;;;10.50;90.20;;;;;;4946633;29;20766;-75
2021/08/29 07:31:09;;;;;;;12.93;11.93;;;10.60;91.00;;;;;;4941499;29;20568;-74
2021/08/29 07:33:42;;;;;;;11.85;10.95;;;10.70;91.40;;;;;;4943685;29;20055;-74
2021/08/29 07:36:19;;;;;;;12.20;11.30;;;10.80;90.90;;;;;;4933222;29;20036;-74
2021/08/29 07:39:01;;;;;;;11.93;11.02;;;10.80;90.00;;;;;;4943219;29;20741;-75
2021/08/29 07:41:33;;;;;;;12.00;11.00;;;10.80;90.70;;;;;;4943515;29;20055;-75
2021/08/29 07:44:06;;;;;;;12.73;11.75;;;10.90;91.60;;;;;;4936319;29;20684;-75
2021/08/29 07:46:38;;;;;;;12.50;11.60;;;11.00;90.60;;;;;;4943701;29;20730;-74
2021/08/29 07:49:10;;;;;;;12.98;12.00;;;11.00;90.90;;;;;;4943228;29;20066;-75
2021/08/29 07:51:42;;;;;;;12.65;11.57;;;11.10;90.90;;;;;;4941655;29;20454;-75
2021/08/29 07:54:43;;;;;;;12.77;11.77;;;11.10;90.60;;;;;;4945388;29;20138;-75
2021/08/29 07:57:48;;;;;;;12.77;11.85;;;11.20;90.50;;;;;;4944324;29;20055;-74
2021/08/29 08:00:29;;;;;;;13.48;12.30;;;11.20;89.90;;;;;;4942942;29;20117;-74
2021/08/29 08:03:21;;;;;;;13.18;12.25;;;11.10;90.70;;;;;;4941889;29;20047;-73
2021/08/29 08:06:12;;;;;;;;;;;11.10;91.00;;;;;;4943412;29;20072;-75
2021/08/29 08:09:02;;;;;;;13.45;12.45;;;11.20;90.80;;;;;;4942820;29;19982;-73
2021/08/29 08:11:52;;;;;;;13.07;12.07;;;11.30;90.90;;;;;;4943527;29;20051;-74
2021/08/29 08:14:24;;;;;;;13.00;12.07;;;11.30;91.00;;;;;;4943152;29;20137;-73
2021/08/29 08:16:56;;;;;;;13.13;12.20;;;11.30;91.20;;;;;;4905425;29;20721;-72
2021/08/29 08:19:34;;;;;;;13.70;12.50;;;11.40;91.20;;;;;;4940824;29;20066;-73
2021/08/29 08:22:07;;;;;;;12.77;11.88;;;11.40;90.00;;;;;;4939300;29;20568;-73
2021/08/29 08:24:57;;;;;;;12.98;11.82;;;11.40;89.90;;;;;;4929594;29;20478;-73
2021/08/29 08:27:52;;;;;;;13.38;12.40;;;11.50;90.50;;;;;;4933763;29;20075;-74
2021/08/29 08:30:43;;;;;;;13.50;12.40;;;11.60;90.00;;;;;;4944230;29;20153;-74
2021/08/29 08:33:34;;;;;;;13.05;12.07;;;11.70;90.20;;;;;;4942263;29;20492;-73
2021/08/29 08:36:31;;;;;;;13.25;12.25;;;11.70;90.10;;;;;;4941982;29;20043;-73
2021/08/29 08:39:17;;;;;;;13.02;11.93;;;11.70;90.20;;;;;;4940601;29;20055;-74
2021/08/29 08:41:56;;;;;;;13.40;12.43;;;11.80;90.40;;;;;;4918593;29;20161;-74
2021/08/29 08:44:47;;;;;;;;;;;11.80;90.10;;;;;;4943738;29;20818;-75
2021/08/29 08:47:42;;;;;;;12.90;11.90;;;11.80;90.00;;;;;;4943397;29;19936;-75
2021/08/29 08:50:35;;;;;;;12.48;11.57;;;11.90;90.00;;;;;;4940714;29;20055;-75
2021/08/29 08:53:29;;;;;;;12.88;11.98;;;12.00;90.00;;;;;;4937549;29;20079;-75
2021/08/29 08:56:38;;;;;;;12.82;11.93;;;12.10;90.10;;;;;;4936242;29;20597;-74
2021/08/29 08:59:44;;;;;;;12.93;11.93;;;12.20;90.10;;;;;;4939118;29;20063;-75
2021/08/29 09:02:34;;;;;;;12.88;11.88;;;12.30;89.70;;;;;;4937277;29;20090;-74
2021/08/29 09:05:13;;;;;;;12.68;11.77;;;12.30;89.50;;;;;;4937005;29;20194;-75
2021/08/29 09:07:46;;;;;;;13.02;12.10;;;12.30;89.40;;;;;;4933672;29;20051;-76
2021/08/29 09:10:19;;;;;;;12.60;11.63;;;12.30;90.20;;;;;;4934671;29;20055;-75
2021/08/29 09:12:59;;;;;;;13.30;12.30;;;12.40;89.50;;;;;;4952003;29;20059;-75
2021/08/29 09:15:32;;;;;;;;;;;12.50;89.70;;;;;;4950805;29;20051;-76
2021/08/29 09:18:05;;;;;;;12.77;11.68;;;12.60;89.20;;;;;;4937704;29;19941;-76
2021/08/29 09:20:39;;;;;;;12.88;11.75;;;12.60;89.10;;;;;;4956073;29;20055;-74
2021/08/29 09:23:16;;;;;;;12.13;11.23;;;12.60;89.20;;;;;;4927623;29;20082;-74
2021/08/29 09:25:53;;;;;;;12.27;11.38;;;12.70;88.30;;;;;;4942815;29;20209;-74
2021/08/29 09:28:39;;;;;;;12.93;11.77;;;12.70;89.00;;;;;;4955462;29;20536;-75
2021/08/29 09:31:18;;;;;;;13.00;12.00;;;12.70;88.50;;;;;;4940166;29;20047;-74
2021/08/29 09:34:01;;;;;;;12.27;11.38;;;12.80;88.60;;;;;;4941057;29;20622;-75
2021/08/29 09:36:35;;;;;;;13.00;12.10;;;13.00;88.80;;;;;;4940536;29;20098;-74
2021/08/29 09:39:20;;;;;;;13.45;12.45;;;12.90;88.60;;;;;;4932368;29;20055;-75
2021/08/29 09:42:04;;;;;;;18.42;16.92;;;13.10;89.30;;;;;;4911364;29;20051;-75
2021/08/29 09:44:57;;;;;;;14.00;13.00;;;13.20;88.00;;;;;;4927841;29;20059;-75
2021/08/29 09:48:04;;;;;;;14.15;13.15;;;13.40;88.30;;;;;;4926460;29;20055;-75
2021/08/29 09:50:59;;;;;;;14.00;13.00;;;13.50;88.00;;;;;;4928052;29;20134;-75
2021/08/29 09:53:50;;;;;;;13.95;12.82;;;13.60;88.20;;;;;;4930388;30;20055;-75
2021/08/29 09:56:29;;;;;;;14.05;13.05;;;13.60;87.40;;;;;;4943599;29;20066;-75
2021/08/29 09:59:45;;;;;;;14.90;13.80;;;13.60;87.70;;;;;;4943735;29;20522;-76
2021/08/29 10:02:35;;;;;;;15.27;14.18;;;13.70;87.80;;;;;;4945112;29;20090;-74
2021/08/29 10:05:13;;;;;;;14.77;13.68;;;13.70;88.10;;;;;;4955674;29;20054;-74
2021/08/29 10:08:08;;;;;;;15.30;14.10;;;13.70;88.00;;;;;;4956416;29;20055;-74
2021/08/29 10:11:07;;;;;;;13.60;12.60;;;13.80;88.70;;;;;;4950957;29;20363;-73
2021/08/29 10:13:40;;;;;;;13.13;12.02;;;13.80;88.30;;;;;;4940804;29;20051;-74
2021/08/29 10:16:21;;;;;;;13.38;12.38;;;13.80;87.80;;;;;;4956773;29;20043;-74
2021/08/29 10:19:14;;;;;;;13.50;12.50;;;13.80;87.90;;;;;;4941826;29;20082;-74
2021/08/29 10:22:12;;;;;;;13.77;12.77;;;13.70;88.00;;;;;;4942989;29;20067;-75
2021/08/29 10:24:46;;;;;;;13.77;12.68;;;13.80;88.40;;;;;;4941807;29;20054;-74
2021/08/29 10:27:20;;;;;;;14.85;13.75;;;13.90;88.60;;;;;;4937690;29;20051;-75
2021/08/29 10:30:12;;;;;;;13.52;12.52;;;14.00;88.50;;;;;;4941907;29;20054;-75
2021/08/29 10:33:19;;;;;;;13.15;12.25;;;14.10;86.70;;;;;;4931936;29;20162;-74
2021/08/29 10:35:55;;;;;;;13.73;12.73;;;14.10;87.00;;;;;;4942466;29;20128;-73
2021/08/29 10:38:47;;;;;;;13.32;12.32;;;14.20;86.10;;;;;;4954023;29;20411;-74
2021/08/29 10:41:39;;;;;;;13.07;12.18;;;14.20;86.90;;;;;;4942734;29;20054;-74
2021/08/29 10:44:18;;;;;;;12.65;11.75;;;14.30;86.60;;;;;;4938944;29;20165;-75
2021/08/29 10:47:09;;;;;;;11.90;11.00;;;14.20;84.10;;;;;;4942108;29;20096;-73
2021/08/29 10:50:17;;;;;;;12.52;11.63;;;13.90;82.30;;;;;;4942938;29;20051;-74
2021/08/29 10:52:49;;;;;;;12.40;11.50;;;13.80;83.50;;;;;;4952500;29;20059;-75
2021/08/29 10:55:28;;;;;;;12.60;11.70;;;13.70;84.00;;;;;;4955534;29;20177;-74
2021/08/29 10:58:03;;;;;;;12.57;11.57;;;13.80;85.40;;;;;;4942258;29;20071;-73
2021/08/29 11:00:35;;;;;;;12.65;11.75;;;13.80;85.50;;;;;;4925886;30;20128;-74
2021/08/29 11:03:33;;;;;;;12.68;11.77;;;13.80;86.40;;;;;;4942594;29;20696;-74
2021/08/29 11:06:49;;;;;;;12.93;12.02;;;14.00;85.50;;;;;;4943537;29;20271;-74
2021/08/29 11:09:37;;;;;;;12.15;11.30;;;14.10;85.00;;;;;;4956065;29;20047;-72
2021/08/29 11:12:13;;;;;;;12.55;11.65;;;14.00;85.00;;;;;;4941343;29;20134;-74
2021/08/29 11:14:49;;;;;;;12.82;11.93;;;14.00;84.40;;;;;;4939041;29;20054;-74
2021/08/29 11:17:38;;;;;;;12.73;11.82;;;14.00;85.40;;;;;;4941423;29;20451;-73
2021/08/29 11:20:15;;;;;;;12.35;11.45;;;14.00;85.80;;;;;;4941438;29;20425;-74
2021/08/29 11:22:52;;;;;;;12.23;11.32;;;14.10;86.60;;;;;;4934930;29;20055;-73
2021/08/29 11:25:43;;;;;;;12.00;11.20;;;13.90;84.20;;;;;;4942157;29;20070;-73
2021/08/29 11:28:38;;;;;;;12.25;11.35;;;13.90;84.40;;;;;;4942212;29;20110;-73
2021/08/29 11:31:49;;;;;;;11.90;11.10;;;13.80;84.70;;;;;;4941493;29;20062;-73
2021/08/29 11:34:22;;;;;;;12.15;11.25;;;13.80;85.80;;;;;;4934673;29;20414;-72
2021/08/29 11:36:55;;;;;;;12.10;11.30;;;13.70;85.20;;;;;;4943175;29;20147;-73
2021/08/29 11:39:37;;;;;;;12.75;11.85;;;13.80;84.00;;;;;;4940479;29;20055;-72
2021/08/29 11:42:20;;;;;;;12.35;11.30;;;13.70;83.30;;;;;;4941008;29;20055;-73
2021/08/29 11:45:02;;;;;;;12.43;11.52;;;13.50;83.50;;;;;;4957400;29;20143;-73
2021/08/29 11:47:42;;;;;;;11.55;10.65;;;13.40;86.40;;;;;;4941116;29;20141;-73
2021/08/29 11:50:25;;;;;;;11.85;11.05;;;13.40;85.70;;;;;;4936574;29;20059;-72
2021/08/29 11:53:41;;;;;;;12.17;11.17;;;13.40;86.00;;;;;;4935972;29;20055;-73
2021/08/29 11:56:17;;;;;;;12.23;11.32;;;13.50;86.80;;;;;;4940447;29;20393;-73
2021/08/29 11:58:50;;;;;;;11.55;10.75;;;13.60;85.90;;;;;;4940405;29;20074;-73
2021/08/29 12:01:23;;;;;;;12.20;11.30;;;13.60;86.90;;;;;;4940249;29;20059;-76
2021/08/29 12:03:58;;;;;;;12.48;11.57;;;13.60;84.50;;;;;;4936806;29;20061;-74
2021/08/29 12:06:49;;;;;;;12.45;11.52;;;13.50;85.90;;;;;;4933903;29;20055;-74
2021/08/29 12:09:41;;;;;;;12.10;11.20;;;13.60;86.10;;;;;;4942137;29;20054;-75
2021/08/29 12:12:45;;;;;;;11.82;11.02;;;13.70;85.00;;;;;;4941738;29;20445;-75
2021/08/29 12:15:51;;;;;;;11.63;10.82;;;13.60;84.10;;;;;;4940087;29;20051;-73
2021/08/29 12:18:43;;;;;;;12.20;11.30;;;13.70;85.40;;;;;;4928943;29;20142;-73
2021/08/29 12:21:21;;;;;;;13.18;12.18;;;13.70;85.70;;;;;;4939976;29;20060;-73
2021/08/29 12:24:14;;;;;;;12.73;11.82;;;13.70;86.50;;;;;;4933947;29;20177;-75
2021/08/29 12:26:58;;;;;;;15.25;13.90;;;13.70;85.90;;;;;;4939219;29;20725;-76
2021/08/29 12:29:31;;;;;;;12.73;11.73;;;13.70;86.40;;;;;;4954816;29;20047;-73
2021/08/29 12:32:09;;;;;;;11.63;10.82;;;13.70;85.40;;;;;;4955709;29;20043;-74
2021/08/29 12:34:42;;;;;;;11.98;11.05;;;13.70;84.90;;;;;;4938773;29;20729;-74
2021/08/29 12:37:14;;;;;;;18.73;16.17;;;13.70;86.20;;;;;;4924639;29;20043;-74
2021/08/29 12:40:02;;;;;;;22.73;17.17;;;13.70;86.60;;;;;;4942603;29;20525;-74
2021/08/29 12:42:42;;;;;;;13.77;12.57;;;13.70;86.50;;;;;;4932998;29;20154;-74
2021/08/29 12:45:24;;;;;;;12.93;11.98;;;13.60;85.30;;;;;;4925895;29;20047;-73
2021/08/29 12:47:57;;;;;;;12.82;11.85;;;13.60;85.90;;;;;;4940927;29;20086;-74
2021/08/29 12:50:30;;;;;;;12.38;11.38;;;13.60;86.30;;;;;;4941219;29;20694;-73
2021/08/29 12:53:08;;;;;;;12.50;11.60;;;13.50;87.40;;;;;;4940053;29;20059;-74
2021/08/29 12:55:51;;;;;;;12.23;11.32;;;13.50;86.40;;;;;;4955650;29;20065;-73
2021/08/29 12:58:29;;;;;;;12.73;11.82;;;13.60;86.90;;;;;;4939927;29;20162;-73
2021/08/29 13:01:04;;;;;;;12.82;11.82;;;13.60;86.20;;;;;;4941086;29;20522;-72
2021/08/29 13:03:50;;;;;;;12.85;11.82;;;13.70;86.50;;;;;;4952960;29;20067;-72
2021/08/29 13:06:23;;;;;;;12.20;11.30;;;13.70;86.60;;;;;;4930364;29;20162;-72
2021/08/29 13:08:55;;;;;;;12.73;11.73;;;13.70;85.40;;;;;;4935892;29;20691;-72
2021/08/29 13:11:27;;;;;;;12.90;12.00;;;13.70;84.20;;;;;;4940613;29;20116;-72
2021/08/29 13:13:59;;;;;;;12.75;11.85;;;13.60;86.30;;;;;;4934011;29;20135;-73
2021/08/29 13:16:39;;;;;;;12.60;11.70;;;13.70;86.90;;;;;;4939345;29;20138;-74
2021/08/29 13:19:11;;;;;;;12.38;11.48;;;13.80;86.20;;;;;;4940987;29;20808;-74
2021/08/29 13:21:43;;;;;;;12.55;11.65;;;13.70;84.70;;;;;;4940428;29;20075;-75
2021/08/29 13:24:26;;;;;;;13.20;12.30;;;13.70;85.90;;;;;;4941319;29;20136;-74
2021/08/29 13:27:00;;;;;;;12.77;11.77;;;13.80;86.60;;;;;;4942532;29;20500;-74
2021/08/29 13:29:41;;;;;;;12.65;11.75;;;13.80;85.50;;;;;;4940777;29;20450;-74
2021/08/29 13:32:14;;;;;;;12.68;11.77;;;13.90;86.30;;;;;;4941711;29;20055;-74
2021/08/29 13:34:46;;;;;;;12.40;11.50;;;13.90;85.90;;;;;;4942452;29;20138;-74
2021/08/29 13:37:20;;;;;;;12.32;11.43;;;13.90;84.40;;;;;;4940616;29;20048;-73
2021/08/29 13:39:51;;;;;;;11.90;11.00;;;13.80;83.90;;;;;;4925892;29;20146;-74
2021/08/29 13:42:23;;;;;;;12.40;11.50;;;13.80;85.70;;;;;;4939808;29;20091;-73